sensor_id;sensor_type;location;lat;lon;timestamp;temperature;humidity
19622;DHT22;9958;33.196;-97.114;2022-09-03T00:02:13;29.40;99.90
19622;DHT22;9958;33.196;-97.114;2022-09-03T00:04:48;29.30;99.90
19622;DHT22;9958;33.196;-97.114;2022-09-03T00:07:23;29.20;99.90
19622;DHT22;9958;33.196;-97.114;2022-09-03T00:09:57;29.10;99.90
19622;DHT22;9958;33.196;-97.114;2022-09-03T00:12:31;29.00;99.90
19622;DHT22;9958;33.196;-97.114;2022-09-03T00:15:06;29.00;99.90
19622;DHT22;9958;33.196;-97.114;2022-09-03T00:17:36;28.90;99.90
19622;DHT22;9958;33.196;-97.114;2022-09-03T00:20:09;28.80;99.90
19622;DHT22;9958;33.196;-97.114;2022-09-03T00:22:42;28.80;99.90
19622;DHT22;9958;33.196;-97.114;2022-09-03T00:25:16;28.70;99.90
19622;DHT22;9958;33.196;-97.114;2022-09-03T00:27:47;28.70;99.90
19622;DHT22;9958;33.196;-97.114;2022-09-03T00:30:21;28.60;99.90
19622;DHT22;9958;33.196;-97.114;2022-09-03T00:32:55;28.60;99.90
19622;DHT22;9958;33.196;-97.114;2022-09-03T00:35:27;28.50;99.90
19622;DHT22;9958;33.196;-97.114;2022-09-03T00:37:57;28.50;99.90
19622;DHT22;9958;33.196;-97.114;2022-09-03T00:40:42;28.40;99.90
19622;DHT22;9958;33.196;-97.114;2022-09-03T00:43:21;28.30;99.90
19622;DHT22;9958;33.196;-97.114;2022-09-03T00:46:05;28.30;99.90
19622;DHT22;9958;33.196;-97.114;2022-09-03T00:48:46;28.20;99.90
19622;DHT22;9958;33.196;-97.114;2022-09-03T00:51:23;28.10;99.90
19622;DHT22;9958;33.196;-97.114;2022-09-03T00:54:01;28.00;99.90
19622;DHT22;9958;33.196;-97.114;2022-09-03T00:56:38;28.00;99.90
19622;DHT22;9958;33.196;-97.114;2022-09-03T00:59:20;27.90;99.90
19622;DHT22;9958;33.196;-97.114;2022-09-03T01:02:00;27.90;99.90
19622;DHT22;9958;33.196;-97.114;2022-09-03T01:04:40;27.90;99.90
19622;DHT22;9958;33.196;-97.114;2022-09-03T01:07:17;27.90;99.90
19622;DHT22;9958;33.196;-97.114;2022-09-03T01:09:54;27.80;99.90
19622;DHT22;9958;33.196;-97.114;2022-09-03T01:12:34;27.80;99.90
19622;DHT22;9958;33.196;-97.114;2022-09-03T01:15:10;27.80;99.90
19622;DHT22;9958;33.196;-97.114;2022-09-03T01:17:50;27.70;99.90
19622;DHT22;9958;33.196;-97.114;2022-09-03T01:20:30;27.70;99.90
19622;DHT22;9958;33.196;-97.114;2022-09-03T01:23:35;27.70;99.90
19622;DHT22;9958;33.196;-97.114;2022-09-03T01:26:25;27.60;99.90
19622;DHT22;9958;33.196;-97.114;2022-09-03T01:29:05;27.60;99.90
19622;DHT22;9958;33.196;-97.114;2022-09-03T01:31:39;27.60;99.90
19622;DHT22;9958;33.196;-97.114;2022-09-03T01:34:19;27.60;99.90
19622;DHT22;9958;33.196;-97.114;2022-09-03T01:36:57;27.50;99.90
19622;DHT22;9958;33.196;-97.114;2022-09-03T01:39:36;27.50;99.90
19622;DHT22;9958;33.196;-97.114;2022-09-03T01:42:13;27.50;99.90
19622;DHT22;9958;33.196;-97.114;2022-09-03T01:45:01;27.50;99.90
19622;DHT22;9958;33.196;-97.114;2022-09-03T01:47:42;27.50;99.90
19622;DHT22;9958;33.196;-97.114;2022-09-03T01:50:27;27.40;99.90
19622;DHT22;9958;33.196;-97.114;2022-09-03T01:53:09;27.40;99.90
19622;DHT22;9958;33.196;-97.114;2022-09-03T01:55:49;27.40;99.90
19622;DHT22;9958;33.196;-97.114;2022-09-03T01:58:27;27.30;99.90
19622;DHT22;9958;33.196;-97.114;2022-09-03T02:01:02;27.30;99.90
19622;DHT22;9958;33.196;-97.114;2022-09-03T02:03:38;27.30;99.90
19622;DHT22;9958;33.196;-97.114;2022-09-03T02:06:08;27.30;99.90
19622;DHT22;9958;33.196;-97.114;2022-09-03T02:08:37;27.20;99.90
19622;DHT22;9958;33.196;-97.114;2022-09-03T02:11:08;27.20;99.90
19622;DHT22;9958;33.196;-97.114;2022-09-03T02:13:39;27.20;99.90
19622;DHT22;9958;33.196;-97.114;2022-09-03T02:16:13;27.10;99.90
19622;DHT22;9958;33.196;-97.114;2022-09-03T02:18:45;27.10;99.90
19622;DHT22;9958;33.196;-97.114;2022-09-03T02:21:17;27.10;99.90
19622;DHT22;9958;33.196;-97.114;2022-09-03T02:23:45;27.00;99.90
19622;DHT22;9958;33.196;-97.114;2022-09-03T02:26:17;27.00;99.90
19622;DHT22;9958;33.196;-97.114;2022-09-03T02:28:46;26.90;99.90
19622;DHT22;9958;33.196;-97.114;2022-09-03T02:31:16;26.90;99.90
19622;DHT22;9958;33.196;-97.114;2022-09-03T02:33:46;26.90;99.90
19622;DHT22;9958;33.196;-97.114;2022-09-03T02:36:17;26.90;99.90
19622;DHT22;9958;33.196;-97.114;2022-09-03T02:38:47;26.80;99.90
19622;DHT22;9958;33.196;-97.114;2022-09-03T02:41:15;26.80;99.90
19622;DHT22;9958;33.196;-97.114;2022-09-03T02:43:48;26.80;99.90
19622;DHT22;9958;33.196;-97.114;2022-09-03T02:46:22;26.70;99.90
19622;DHT22;9958;33.196;-97.114;2022-09-03T02:48:52;26.70;99.90
19622;DHT22;9958;33.196;-97.114;2022-09-03T02:51:22;26.70;99.90
19622;DHT22;9958;33.196;-97.114;2022-09-03T02:53:51;26.60;99.90
19622;DHT22;9958;33.196;-97.114;2022-09-03T02:56:19;26.60;99.90
19622;DHT22;9958;33.196;-97.114;2022-09-03T02:58:53;26.60;99.90
19622;DHT22;9958;33.196;-97.114;2022-09-03T03:01:23;26.50;99.90
19622;DHT22;9958;33.196;-97.114;2022-09-03T03:03:52;26.50;99.90
19622;DHT22;9958;33.196;-97.114;2022-09-03T03:06:20;26.50;99.90
19622;DHT22;9958;33.196;-97.114;2022-09-03T03:08:49;26.40;99.90
19622;DHT22;9958;33.196;-97.114;2022-09-03T03:11:18;26.40;99.90
19622;DHT22;9958;33.196;-97.114;2022-09-03T03:13:47;26.40;99.90
19622;DHT22;9958;33.196;-97.114;2022-09-03T03:16:16;26.30;99.90
19622;DHT22;9958;33.196;-97.114;2022-09-03T03:18:45;26.30;99.90
19622;DHT22;9958;33.196;-97.114;2022-09-03T03:21:15;26.30;99.90
19622;DHT22;9958;33.196;-97.114;2022-09-03T03:23:43;26.20;99.90
19622;DHT22;9958;33.196;-97.114;2022-09-03T03:26:13;26.20;99.90
19622;DHT22;9958;33.196;-97.114;2022-09-03T03:28:43;26.20;99.90
19622;DHT22;9958;33.196;-97.114;2022-09-03T03:31:13;26.10;99.90
19622;DHT22;9958;33.196;-97.114;2022-09-03T03:33:42;26.10;99.90
19622;DHT22;9958;33.196;-97.114;2022-09-03T03:36:14;26.00;99.90
19622;DHT22;9958;33.196;-97.114;2022-09-03T03:38:43;26.00;99.90
19622;DHT22;9958;33.196;-97.114;2022-09-03T03:41:16;25.90;99.90
19622;DHT22;9958;33.196;-97.114;2022-09-03T03:43:45;25.90;99.90
19622;DHT22;9958;33.196;-97.114;2022-09-03T03:46:13;25.90;99.90
19622;DHT22;9958;33.196;-97.114;2022-09-03T03:48:42;25.90;99.90
19622;DHT22;9958;33.196;-97.114;2022-09-03T03:51:11;25.80;99.90
19622;DHT22;9958;33.196;-97.114;2022-09-03T03:53:40;25.80;99.90
19622;DHT22;9958;33.196;-97.114;2022-09-03T03:56:10;25.80;99.90
19622;DHT22;9958;33.196;-97.114;2022-09-03T03:58:39;25.80;99.90
19622;DHT22;9958;33.196;-97.114;2022-09-03T04:01:10;25.70;99.90
19622;DHT22;9958;33.196;-97.114;2022-09-03T04:03:40;25.70;99.90
19622;DHT22;9958;33.196;-97.114;2022-09-03T04:06:09;25.60;99.90
19622;DHT22;9958;33.196;-97.114;2022-09-03T04:08:41;25.60;99.90
19622;DHT22;9958;33.196;-97.114;2022-09-03T04:11:11;25.60;99.90
19622;DHT22;9958;33.196;-97.114;2022-09-03T04:13:41;25.60;99.90
19622;DHT22;9958;33.196;-97.114;2022-09-03T04:16:10;25.60;99.90
19622;DHT22;9958;33.196;-97.114;2022-09-03T04:18:39;25.50;99.90
19622;DHT22;9958;33.196;-97.114;2022-09-03T04:21:10;25.50;99.90
19622;DHT22;9958;33.196;-97.114;2022-09-03T04:23:41;25.50;99.90
19622;DHT22;9958;33.196;-97.114;2022-09-03T04:26:11;25.40;99.90
19622;DHT22;9958;33.196;-97.114;2022-09-03T04:28:40;25.40;99.90
19622;DHT22;9958;33.196;-97.114;2022-09-03T04:31:11;25.40;99.90
19622;DHT22;9958;33.196;-97.114;2022-09-03T04:33:40;25.30;99.90
19622;DHT22;9958;33.196;-97.114;2022-09-03T04:36:10;25.30;99.90
19622;DHT22;9958;33.196;-97.114;2022-09-03T04:38:41;25.30;99.90
19622;DHT22;9958;33.196;-97.114;2022-09-03T04:41:12;25.30;99.90
19622;DHT22;9958;33.196;-97.114;2022-09-03T04:43:41;25.30;99.90
19622;DHT22;9958;33.196;-97.114;2022-09-03T04:46:11;25.30;99.90
19622;DHT22;9958;33.196;-97.114;2022-09-03T04:48:40;25.20;99.90
19622;DHT22;9958;33.196;-97.114;2022-09-03T04:51:10;25.20;99.90
19622;DHT22;9958;33.196;-97.114;2022-09-03T04:53:42;25.20;99.90
19622;DHT22;9958;33.196;-97.114;2022-09-03T04:56:14;25.10;99.90
19622;DHT22;9958;33.196;-97.114;2022-09-03T04:58:43;25.10;99.90
19622;DHT22;9958;33.196;-97.114;2022-09-03T05:01:12;25.10;99.90
19622;DHT22;9958;33.196;-97.114;2022-09-03T05:03:43;25.00;99.90
19622;DHT22;9958;33.196;-97.114;2022-09-03T05:06:11;25.00;99.90
19622;DHT22;9958;33.196;-97.114;2022-09-03T05:08:46;25.10;99.90
19622;DHT22;9958;33.196;-97.114;2022-09-03T05:11:14;25.00;99.90
19622;DHT22;9958;33.196;-97.114;2022-09-03T05:13:45;25.00;99.90
19622;DHT22;9958;33.196;-97.114;2022-09-03T05:16:14;25.00;99.90
19622;DHT22;9958;33.196;-97.114;2022-09-03T05:18:43;24.90;99.90
19622;DHT22;9958;33.196;-97.114;2022-09-03T05:21:13;24.90;99.90
19622;DHT22;9958;33.196;-97.114;2022-09-03T05:23:44;24.80;99.90
19622;DHT22;9958;33.196;-97.114;2022-09-03T05:26:15;24.80;99.90
19622;DHT22;9958;33.196;-97.114;2022-09-03T05:28:44;24.80;99.90
19622;DHT22;9958;33.196;-97.114;2022-09-03T05:31:14;24.80;99.90
19622;DHT22;9958;33.196;-97.114;2022-09-03T05:33:45;24.80;99.90
19622;DHT22;9958;33.196;-97.114;2022-09-03T05:36:14;24.70;99.90
19622;DHT22;9958;33.196;-97.114;2022-09-03T05:38:45;24.70;99.90
19622;DHT22;9958;33.196;-97.114;2022-09-03T05:41:15;24.70;99.90
19622;DHT22;9958;33.196;-97.114;2022-09-03T05:43:44;24.60;99.90
19622;DHT22;9958;33.196;-97.114;2022-09-03T05:46:14;24.60;99.90
19622;DHT22;9958;33.196;-97.114;2022-09-03T05:48:44;24.60;99.90
19622;DHT22;9958;33.196;-97.114;2022-09-03T05:51:13;24.60;99.90
19622;DHT22;9958;33.196;-97.114;2022-09-03T05:53:45;24.60;99.90
19622;DHT22;9958;33.196;-97.114;2022-09-03T05:56:14;24.60;99.90
19622;DHT22;9958;33.196;-97.114;2022-09-03T05:58:45;24.50;99.90
19622;DHT22;9958;33.196;-97.114;2022-09-03T06:01:15;24.50;99.90
19622;DHT22;9958;33.196;-97.114;2022-09-03T06:03:45;24.50;99.90
19622;DHT22;9958;33.196;-97.114;2022-09-03T06:06:14;24.50;99.90
19622;DHT22;9958;33.196;-97.114;2022-09-03T06:08:44;24.40;99.90
19622;DHT22;9958;33.196;-97.114;2022-09-03T06:11:17;24.40;99.90
19622;DHT22;9958;33.196;-97.114;2022-09-03T06:13:45;24.40;99.90
19622;DHT22;9958;33.196;-97.114;2022-09-03T06:16:14;24.40;99.90
19622;DHT22;9958;33.196;-97.114;2022-09-03T06:18:42;24.40;99.90
19622;DHT22;9958;33.196;-97.114;2022-09-03T06:21:10;24.30;99.90
19622;DHT22;9958;33.196;-97.114;2022-09-03T06:23:40;24.30;99.90
19622;DHT22;9958;33.196;-97.114;2022-09-03T06:26:12;24.30;99.90
19622;DHT22;9958;33.196;-97.114;2022-09-03T06:28:41;24.30;99.90
19622;DHT22;9958;33.196;-97.114;2022-09-03T06:31:11;24.30;99.90
19622;DHT22;9958;33.196;-97.114;2022-09-03T06:33:41;24.20;99.90
19622;DHT22;9958;33.196;-97.114;2022-09-03T06:36:13;24.20;99.90
19622;DHT22;9958;33.196;-97.114;2022-09-03T06:38:43;24.20;99.90
19622;DHT22;9958;33.196;-97.114;2022-09-03T06:41:14;24.10;99.90
19622;DHT22;9958;33.196;-97.114;2022-09-03T06:43:44;24.10;99.90
19622;DHT22;9958;33.196;-97.114;2022-09-03T06:46:15;24.10;99.90
19622;DHT22;9958;33.196;-97.114;2022-09-03T06:48:43;24.10;99.90
19622;DHT22;9958;33.196;-97.114;2022-09-03T06:51:14;24.00;99.90
19622;DHT22;9958;33.196;-97.114;2022-09-03T06:53:44;24.00;99.90
19622;DHT22;9958;33.196;-97.114;2022-09-03T06:56:15;24.00;99.90
19622;DHT22;9958;33.196;-97.114;2022-09-03T06:58:45;24.00;99.90
19622;DHT22;9958;33.196;-97.114;2022-09-03T07:01:16;23.90;99.90
19622;DHT22;9958;33.196;-97.114;2022-09-03T07:03:45;23.90;99.90
19622;DHT22;9958;33.196;-97.114;2022-09-03T07:06:16;23.90;99.90
19622;DHT22;9958;33.196;-97.114;2022-09-03T07:08:45;23.90;99.90
19622;DHT22;9958;33.196;-97.114;2022-09-03T07:11:16;23.90;99.90
19622;DHT22;9958;33.196;-97.114;2022-09-03T07:13:46;23.80;99.90
19622;DHT22;9958;33.196;-97.114;2022-09-03T07:16:19;23.80;99.90
19622;DHT22;9958;33.196;-97.114;2022-09-03T07:18:48;23.80;99.90
19622;DHT22;9958;33.196;-97.114;2022-09-03T07:21:18;23.80;99.90
19622;DHT22;9958;33.196;-97.114;2022-09-03T07:23:46;23.80;99.90
19622;DHT22;9958;33.196;-97.114;2022-09-03T07:26:18;23.80;99.90
19622;DHT22;9958;33.196;-97.114;2022-09-03T07:28:47;23.80;99.90
19622;DHT22;9958;33.196;-97.114;2022-09-03T07:31:17;23.70;99.90
19622;DHT22;9958;33.196;-97.114;2022-09-03T07:33:46;23.70;99.90
19622;DHT22;9958;33.196;-97.114;2022-09-03T07:36:15;23.70;99.90
19622;DHT22;9958;33.196;-97.114;2022-09-03T07:38:44;23.70;99.90
19622;DHT22;9958;33.196;-97.114;2022-09-03T07:41:14;23.70;99.90
19622;DHT22;9958;33.196;-97.114;2022-09-03T07:43:45;23.70;99.90
19622;DHT22;9958;33.196;-97.114;2022-09-03T07:46:14;23.70;99.90
19622;DHT22;9958;33.196;-97.114;2022-09-03T07:48:49;23.70;99.90
19622;DHT22;9958;33.196;-97.114;2022-09-03T07:51:19;23.70;99.90
19622;DHT22;9958;33.196;-97.114;2022-09-03T07:53:48;23.70;99.90
19622;DHT22;9958;33.196;-97.114;2022-09-03T07:56:19;23.70;99.90
19622;DHT22;9958;33.196;-97.114;2022-09-03T07:58:49;23.70;99.90
19622;DHT22;9958;33.196;-97.114;2022-09-03T08:01:18;23.70;99.90
19622;DHT22;9958;33.196;-97.114;2022-09-03T08:03:48;23.70;99.90
19622;DHT22;9958;33.196;-97.114;2022-09-03T08:06:19;23.70;99.90
19622;DHT22;9958;33.196;-97.114;2022-09-03T08:08:47;23.70;99.90
19622;DHT22;9958;33.196;-97.114;2022-09-03T08:11:18;23.70;99.90
19622;DHT22;9958;33.196;-97.114;2022-09-03T08:13:52;23.70;99.90
19622;DHT22;9958;33.196;-97.114;2022-09-03T08:16:22;23.70;99.90
19622;DHT22;9958;33.196;-97.114;2022-09-03T08:18:51;23.70;99.90
19622;DHT22;9958;33.196;-97.114;2022-09-03T08:21:19;23.70;99.90
19622;DHT22;9958;33.196;-97.114;2022-09-03T08:23:48;23.70;99.90
19622;DHT22;9958;33.196;-97.114;2022-09-03T08:26:18;23.70;99.90
19622;DHT22;9958;33.196;-97.114;2022-09-03T08:28:51;23.60;99.90
19622;DHT22;9958;33.196;-97.114;2022-09-03T08:31:20;23.60;99.90
19622;DHT22;9958;33.196;-97.114;2022-09-03T08:33:51;23.60;99.90
19622;DHT22;9958;33.196;-97.114;2022-09-03T08:36:22;23.60;99.90
19622;DHT22;9958;33.196;-97.114;2022-09-03T08:38:51;23.60;99.90
19622;DHT22;9958;33.196;-97.114;2022-09-03T08:41:26;23.60;99.90
19622;DHT22;9958;33.196;-97.114;2022-09-03T08:44:18;23.60;99.90
19622;DHT22;9958;33.196;-97.114;2022-09-03T08:46:53;23.60;99.90
19622;DHT22;9958;33.196;-97.114;2022-09-03T08:49:26;23.60;99.90
19622;DHT22;9958;33.196;-97.114;2022-09-03T08:51:56;23.60;99.90
19622;DHT22;9958;33.196;-97.114;2022-09-03T08:54:28;23.60;99.90
19622;DHT22;9958;33.196;-97.114;2022-09-03T08:57:00;23.60;99.90
19622;DHT22;9958;33.196;-97.114;2022-09-03T08:59:31;23.60;99.90
19622;DHT22;9958;33.196;-97.114;2022-09-03T09:02:15;23.60;99.90
19622;DHT22;9958;33.196;-97.114;2022-09-03T09:04:55;23.60;99.90
19622;DHT22;9958;33.196;-97.114;2022-09-03T09:07:29;23.60;99.90
19622;DHT22;9958;33.196;-97.114;2022-09-03T09:10:03;23.50;99.90
19622;DHT22;9958;33.196;-97.114;2022-09-03T09:12:38;23.50;99.90
19622;DHT22;9958;33.196;-97.114;2022-09-03T09:15:12;23.50;99.90
19622;DHT22;9958;33.196;-97.114;2022-09-03T09:17:59;23.50;99.90
19622;DHT22;9958;33.196;-97.114;2022-09-03T09:20:35;23.40;99.90
19622;DHT22;9958;33.196;-97.114;2022-09-03T09:23:09;23.40;99.90
19622;DHT22;9958;33.196;-97.114;2022-09-03T09:25:46;23.40;99.90
19622;DHT22;9958;33.196;-97.114;2022-09-03T09:28:17;23.40;99.90
19622;DHT22;9958;33.196;-97.114;2022-09-03T09:30:49;23.30;99.90
19622;DHT22;9958;33.196;-97.114;2022-09-03T09:33:18;23.30;99.90
19622;DHT22;9958;33.196;-97.114;2022-09-03T09:35:47;23.30;99.90
19622;DHT22;9958;33.196;-97.114;2022-09-03T09:38:27;23.30;99.90
19622;DHT22;9958;33.196;-97.114;2022-09-03T09:40:55;23.30;99.90
19622;DHT22;9958;33.196;-97.114;2022-09-03T09:43:25;23.30;99.90
19622;DHT22;9958;33.196;-97.114;2022-09-03T09:46:06;23.20;99.90
19622;DHT22;9958;33.196;-97.114;2022-09-03T09:48:38;23.30;99.90
19622;DHT22;9958;33.196;-97.114;2022-09-03T09:51:16;23.20;99.90
19622;DHT22;9958;33.196;-97.114;2022-09-03T09:53:44;23.20;99.90
19622;DHT22;9958;33.196;-97.114;2022-09-03T09:56:21;23.20;99.90
19622;DHT22;9958;33.196;-97.114;2022-09-03T09:58:49;23.20;99.90
19622;DHT22;9958;33.196;-97.114;2022-09-03T10:01:30;23.20;99.90
19622;DHT22;9958;33.196;-97.114;2022-09-03T10:03:59;23.20;99.90
19622;DHT22;9958;33.196;-97.114;2022-09-03T10:06:35;23.20;99.90
19622;DHT22;9958;33.196;-97.114;2022-09-03T10:09:24;23.20;99.90
19622;DHT22;9958;33.196;-97.114;2022-09-03T10:12:07;23.20;99.90
19622;DHT22;9958;33.196;-97.114;2022-09-03T10:14:43;23.10;99.90
19622;DHT22;9958;33.196;-97.114;2022-09-03T10:17:20;23.20;99.90
19622;DHT22;9958;33.196;-97.114;2022-09-03T10:19:55;23.10;99.90
19622;DHT22;9958;33.196;-97.114;2022-09-03T10:22:48;23.10;99.90
19622;DHT22;9958;33.196;-97.114;2022-09-03T10:25:17;23.10;99.90
19622;DHT22;9958;33.196;-97.114;2022-09-03T10:27:47;23.10;99.90
19622;DHT22;9958;33.196;-97.114;2022-09-03T10:30:15;23.00;99.90
19622;DHT22;9958;33.196;-97.114;2022-09-03T10:32:51;23.00;99.90
19622;DHT22;9958;33.196;-97.114;2022-09-03T10:35:29;23.00;99.90
19622;DHT22;9958;33.196;-97.114;2022-09-03T10:38:06;23.00;99.90
19622;DHT22;9958;33.196;-97.114;2022-09-03T10:40:38;23.00;99.90
19622;DHT22;9958;33.196;-97.114;2022-09-03T10:43:21;23.00;99.90
19622;DHT22;9958;33.196;-97.114;2022-09-03T10:46:01;23.00;99.90
19622;DHT22;9958;33.196;-97.114;2022-09-03T10:48:57;23.00;99.90
19622;DHT22;9958;33.196;-97.114;2022-09-03T10:51:34;23.00;99.90
19622;DHT22;9958;33.196;-97.114;2022-09-03T10:54:16;23.00;99.90
19622;DHT22;9958;33.196;-97.114;2022-09-03T10:56:56;22.90;99.90
19622;DHT22;9958;33.196;-97.114;2022-09-03T10:59:32;22.90;99.90
19622;DHT22;9958;33.196;-97.114;2022-09-03T11:05:21;22.90;99.90
19622;DHT22;9958;33.196;-97.114;2022-09-03T11:08:00;22.90;99.90
19622;DHT22;9958;33.196;-97.114;2022-09-03T11:10:33;22.90;99.90
19622;DHT22;9958;33.196;-97.114;2022-09-03T11:13:05;22.90;99.90
19622;DHT22;9958;33.196;-97.114;2022-09-03T11:15:36;22.90;99.90
19622;DHT22;9958;33.196;-97.114;2022-09-03T11:18:14;22.90;99.90
19622;DHT22;9958;33.196;-97.114;2022-09-03T11:20:48;22.90;99.90
19622;DHT22;9958;33.196;-97.114;2022-09-03T11:23:19;22.90;99.90
19622;DHT22;9958;33.196;-97.114;2022-09-03T11:25:50;22.80;99.90
19622;DHT22;9958;33.196;-97.114;2022-09-03T11:28:26;22.80;99.90
19622;DHT22;9958;33.196;-97.114;2022-09-03T11:31:22;22.90;99.90
19622;DHT22;9958;33.196;-97.114;2022-09-03T11:33:55;22.80;99.90
19622;DHT22;9958;33.196;-97.114;2022-09-03T11:36:31;22.80;99.90
19622;DHT22;9958;33.196;-97.114;2022-09-03T11:39:00;22.80;99.90
19622;DHT22;9958;33.196;-97.114;2022-09-03T11:41:39;22.80;99.90
19622;DHT22;9958;33.196;-97.114;2022-09-03T11:44:16;22.80;99.90
19622;DHT22;9958;33.196;-97.114;2022-09-03T11:46:53;22.80;99.90
19622;DHT22;9958;33.196;-97.114;2022-09-03T11:49:28;22.80;99.90
19622;DHT22;9958;33.196;-97.114;2022-09-03T11:52:00;22.80;99.90
19622;DHT22;9958;33.196;-97.114;2022-09-03T11:54:31;22.80;99.90
19622;DHT22;9958;33.196;-97.114;2022-09-03T11:57:10;22.80;99.90
19622;DHT22;9958;33.196;-97.114;2022-09-03T11:59:41;22.80;99.90
19622;DHT22;9958;33.196;-97.114;2022-09-03T12:02:24;22.80;99.90
19622;DHT22;9958;33.196;-97.114;2022-09-03T12:05:06;22.80;99.90
19622;DHT22;9958;33.196;-97.114;2022-09-03T12:07:56;22.70;99.90
19622;DHT22;9958;33.196;-97.114;2022-09-03T12:10:33;22.70;99.90
19622;DHT22;9958;33.196;-97.114;2022-09-03T12:13:14;22.80;99.90
19622;DHT22;9958;33.196;-97.114;2022-09-03T12:15:59;22.80;99.90
19622;DHT22;9958;33.196;-97.114;2022-09-03T12:18:34;22.80;99.90
19622;DHT22;9958;33.196;-97.114;2022-09-03T12:21:04;22.80;99.90
19622;DHT22;9958;33.196;-97.114;2022-09-03T12:23:41;22.80;99.90
19622;DHT22;9958;33.196;-97.114;2022-09-03T12:26:13;22.80;99.90
19622;DHT22;9958;33.196;-97.114;2022-09-03T12:28:43;22.80;99.90
19622;DHT22;9958;33.196;-97.114;2022-09-03T12:31:16;22.90;99.90
19622;DHT22;9958;33.196;-97.114;2022-09-03T12:33:49;23.10;99.90
19622;DHT22;9958;33.196;-97.114;2022-09-03T12:36:19;23.60;99.90
19622;DHT22;9958;33.196;-97.114;2022-09-03T12:38:50;24.30;99.90
19622;DHT22;9958;33.196;-97.114;2022-09-03T12:41:25;25.20;99.90
19622;DHT22;9958;33.196;-97.114;2022-09-03T12:43:55;26.20;99.90
19622;DHT22;9958;33.196;-97.114;2022-09-03T12:46:25;27.00;99.90
19622;DHT22;9958;33.196;-97.114;2022-09-03T12:48:55;27.80;99.90
19622;DHT22;9958;33.196;-97.114;2022-09-03T12:51:31;28.10;99.90
19622;DHT22;9958;33.196;-97.114;2022-09-03T12:54:03;28.40;99.90
19622;DHT22;9958;33.196;-97.114;2022-09-03T12:56:33;28.60;99.90
19622;DHT22;9958;33.196;-97.114;2022-09-03T12:59:04;28.60;99.90
19622;DHT22;9958;33.196;-97.114;2022-09-03T13:01:38;28.50;99.90
19622;DHT22;9958;33.196;-97.114;2022-09-03T13:04:11;28.30;99.90
19622;DHT22;9958;33.196;-97.114;2022-09-03T13:06:47;28.10;99.90
19622;DHT22;9958;33.196;-97.114;2022-09-03T13:09:22;27.90;99.90
19622;DHT22;9958;33.196;-97.114;2022-09-03T13:11:52;27.60;99.90
19622;DHT22;9958;33.196;-97.114;2022-09-03T13:14:20;27.40;99.90
19622;DHT22;9958;33.196;-97.114;2022-09-03T13:17:07;27.20;99.90
19622;DHT22;9958;33.196;-97.114;2022-09-03T13:19:57;27.10;99.90
19622;DHT22;9958;33.196;-97.114;2022-09-03T13:22:33;27.00;99.90
19622;DHT22;9958;33.196;-97.114;2022-09-03T13:25:13;26.90;99.90
19622;DHT22;9958;33.196;-97.114;2022-09-03T13:27:51;26.80;99.90
19622;DHT22;9958;33.196;-97.114;2022-09-03T13:30:22;26.80;99.90
19622;DHT22;9958;33.196;-97.114;2022-09-03T13:33:00;26.80;99.90
19622;DHT22;9958;33.196;-97.114;2022-09-03T13:35:33;26.80;99.90
19622;DHT22;9958;33.196;-97.114;2022-09-03T13:38:17;26.80;99.90
19622;DHT22;9958;33.196;-97.114;2022-09-03T13:40:54;26.80;99.90
19622;DHT22;9958;33.196;-97.114;2022-09-03T13:43:29;26.90;99.90
19622;DHT22;9958;33.196;-97.114;2022-09-03T13:46:02;26.80;99.90
19622;DHT22;9958;33.196;-97.114;2022-09-03T13:48:37;26.90;99.90
19622;DHT22;9958;33.196;-97.114;2022-09-03T13:51:26;26.90;99.90
19622;DHT22;9958;33.196;-97.114;2022-09-03T13:54:03;27.00;99.90
19622;DHT22;9958;33.196;-97.114;2022-09-03T13:56:50;27.00;99.90
19622;DHT22;9958;33.196;-97.114;2022-09-03T13:59:27;27.10;99.90
19622;DHT22;9958;33.196;-97.114;2022-09-03T14:02:11;27.20;99.90
19622;DHT22;9958;33.196;-97.114;2022-09-03T14:04:50;27.30;99.90
19622;DHT22;9958;33.196;-97.114;2022-09-03T14:07:25;27.40;99.90
19622;DHT22;9958;33.196;-97.114;2022-09-03T14:10:00;27.50;99.90
19622;DHT22;9958;33.196;-97.114;2022-09-03T14:12:38;27.60;99.90
19622;DHT22;9958;33.196;-97.114;2022-09-03T14:15:16;27.70;99.90
19622;DHT22;9958;33.196;-97.114;2022-09-03T14:17:51;27.80;99.90
19622;DHT22;9958;33.196;-97.114;2022-09-03T14:20:25;28.00;99.90
19622;DHT22;9958;33.196;-97.114;2022-09-03T14:22:58;28.10;99.90
19622;DHT22;9958;33.196;-97.114;2022-09-03T14:25:29;28.20;99.90
19622;DHT22;9958;33.196;-97.114;2022-09-03T14:30:56;28.30;99.90
19622;DHT22;9958;33.196;-97.114;2022-09-03T14:33:37;28.60;99.90
19622;DHT22;9958;33.196;-97.114;2022-09-03T14:36:12;28.70;99.90
19622;DHT22;9958;33.196;-97.114;2022-09-03T14:45:09;29.00;99.90
19622;DHT22;9958;33.196;-97.114;2022-09-03T14:47:53;29.20;99.90
19622;DHT22;9958;33.196;-97.114;2022-09-03T14:50:48;29.40;99.90
19622;DHT22;9958;33.196;-97.114;2022-09-03T14:53:36;29.40;99.90
19622;DHT22;9958;33.196;-97.114;2022-09-03T14:56:24;29.50;99.90
19622;DHT22;9958;33.196;-97.114;2022-09-03T14:59:25;29.60;99.90
19622;DHT22;9958;33.196;-97.114;2022-09-03T15:02:13;29.80;99.90
19622;DHT22;9958;33.196;-97.114;2022-09-03T15:04:58;29.90;99.90
19622;DHT22;9958;33.196;-97.114;2022-09-03T15:07:33;30.00;99.90
19622;DHT22;9958;33.196;-97.114;2022-09-03T15:10:11;30.00;99.90
19622;DHT22;9958;33.196;-97.114;2022-09-03T15:12:44;30.10;99.90
19622;DHT22;9958;33.196;-97.114;2022-09-03T15:15:18;30.20;99.90
19622;DHT22;9958;33.196;-97.114;2022-09-03T15:17:54;30.30;99.90
19622;DHT22;9958;33.196;-97.114;2022-09-03T15:20:34;30.40;99.90
19622;DHT22;9958;33.196;-97.114;2022-09-03T15:26:22;30.60;99.90
19622;DHT22;9958;33.196;-97.114;2022-09-03T15:29:06;30.60;99.90
19622;DHT22;9958;33.196;-97.114;2022-09-03T15:31:45;30.70;99.90
19622;DHT22;9958;33.196;-97.114;2022-09-03T15:34:32;30.80;99.90
19622;DHT22;9958;33.196;-97.114;2022-09-03T15:37:12;30.80;99.90
19622;DHT22;9958;33.196;-97.114;2022-09-03T15:39:44;30.90;99.90
19622;DHT22;9958;33.196;-97.114;2022-09-03T15:42:19;31.00;99.90
19622;DHT22;9958;33.196;-97.114;2022-09-03T15:44:51;31.10;99.90
19622;DHT22;9958;33.196;-97.114;2022-09-03T15:47:47;31.20;99.90
19622;DHT22;9958;33.196;-97.114;2022-09-03T15:50:31;31.20;99.90
19622;DHT22;9958;33.196;-97.114;2022-09-03T15:53:12;31.30;99.90
19622;DHT22;9958;33.196;-97.114;2022-09-03T15:55:44;31.40;99.90
19622;DHT22;9958;33.196;-97.114;2022-09-03T15:58:22;31.50;99.90
19622;DHT22;9958;33.196;-97.114;2022-09-03T16:00:56;31.50;99.90
19622;DHT22;9958;33.196;-97.114;2022-09-03T16:03:36;31.60;99.90
19622;DHT22;9958;33.196;-97.114;2022-09-03T16:06:23;31.70;99.90
19622;DHT22;9958;33.196;-97.114;2022-09-03T16:08:59;31.90;99.90
19622;DHT22;9958;33.196;-97.114;2022-09-03T16:11:35;32.00;99.90
19622;DHT22;9958;33.196;-97.114;2022-09-03T16:14:09;32.00;99.90